sensor_id;sensor_type;location;lat;lon;timestamp;temperature;humidity
20528;DHT22;23612;50.894;10.700;2023-07-31T00:00:07;16.40;99.90
20528;DHT22;23612;50.894;10.700;2023-07-31T00:02:34;16.40;99.90
20528;DHT22;23612;50.894;10.700;2023-07-31T00:05:00;16.40;99.90
20528;DHT22;23612;50.894;10.700;2023-07-31T00:07:26;16.40;99.90
20528;DHT22;23612;50.894;10.700;2023-07-31T00:09:52;16.30;99.90
20528;DHT22;23612;50.894;10.700;2023-07-31T00:12:19;16.20;99.90
20528;DHT22;23612;50.894;10.700;2023-07-31T00:14:44;16.20;99.90
20528;DHT22;23612;50.894;10.700;2023-07-31T00:17:10;16.10;99.90
20528;DHT22;23612;50.894;10.700;2023-07-31T00:19:35;16.10;99.90
20528;DHT22;23612;50.894;10.700;2023-07-31T00:22:01;16.00;99.90
20528;DHT22;23612;50.894;10.700;2023-07-31T00:24:26;16.00;99.90
20528;DHT22;23612;50.894;10.700;2023-07-31T00:26:52;15.90;99.90
20528;DHT22;23612;50.894;10.700;2023-07-31T00:29:17;15.90;99.90
20528;DHT22;23612;50.894;10.700;2023-07-31T00:31:43;15.80;99.90
20528;DHT22;23612;50.894;10.700;2023-07-31T00:34:08;15.80;99.90
20528;DHT22;23612;50.894;10.700;2023-07-31T00:36:34;15.80;99.90
20528;DHT22;23612;50.894;10.700;2023-07-31T00:38:59;15.70;99.90
20528;DHT22;23612;50.894;10.700;2023-07-31T00:41:25;15.70;99.90
20528;DHT22;23612;50.894;10.700;2023-07-31T00:43:50;15.70;99.90
20528;DHT22;23612;50.894;10.700;2023-07-31T00:46:16;15.70;99.90
20528;DHT22;23612;50.894;10.700;2023-07-31T00:48:42;15.60;99.90
20528;DHT22;23612;50.894;10.700;2023-07-31T00:51:08;15.60;99.90
20528;DHT22;23612;50.894;10.700;2023-07-31T00:53:34;15.70;99.90
20528;DHT22;23612;50.894;10.700;2023-07-31T00:55:59;15.70;99.90
20528;DHT22;23612;50.894;10.700;2023-07-31T00:58:25;15.70;99.90
20528;DHT22;23612;50.894;10.700;2023-07-31T01:00:51;15.70;99.90
20528;DHT22;23612;50.894;10.700;2023-07-31T01:03:17;15.70;99.90
20528;DHT22;23612;50.894;10.700;2023-07-31T01:06:10;15.70;99.90
20528;DHT22;23612;50.894;10.700;2023-07-31T01:11:21;15.70;99.90
20528;DHT22;23612;50.894;10.700;2023-07-31T01:13:51;15.70;99.90
20528;DHT22;23612;50.894;10.700;2023-07-31T01:16:16;15.80;99.90
20528;DHT22;23612;50.894;10.700;2023-07-31T01:18:42;15.80;99.90
20528;DHT22;23612;50.894;10.700;2023-07-31T01:26:49;15.80;99.90
20528;DHT22;23612;50.894;10.700;2023-07-31T01:31:53;15.70;99.90
20528;DHT22;23612;50.894;10.700;2023-07-31T01:34:21;15.60;99.90
20528;DHT22;23612;50.894;10.700;2023-07-31T01:36:47;15.60;99.90
20528;DHT22;23612;50.894;10.700;2023-07-31T01:39:13;15.50;99.90
20528;DHT22;23612;50.894;10.700;2023-07-31T01:41:38;15.50;99.90
20528;DHT22;23612;50.894;10.700;2023-07-31T01:44:04;15.40;99.90
20528;DHT22;23612;50.894;10.700;2023-07-31T01:46:30;15.30;99.90
20528;DHT22;23612;50.894;10.700;2023-07-31T01:48:55;15.20;99.90
20528;DHT22;23612;50.894;10.700;2023-07-31T01:51:21;15.10;99.90
20528;DHT22;23612;50.894;10.700;2023-07-31T01:53:46;15.00;99.90
20528;DHT22;23612;50.894;10.700;2023-07-31T01:56:12;14.90;99.90
20528;DHT22;23612;50.894;10.700;2023-07-31T01:58:37;14.90;99.90
20528;DHT22;23612;50.894;10.700;2023-07-31T02:01:03;14.80;99.90
20528;DHT22;23612;50.894;10.700;2023-07-31T02:03:28;14.80;99.90
20528;DHT22;23612;50.894;10.700;2023-07-31T02:05:54;14.70;99.90
20528;DHT22;23612;50.894;10.700;2023-07-31T02:08:20;14.70;99.90
20528;DHT22;23612;50.894;10.700;2023-07-31T02:10:45;14.60;99.90
20528;DHT22;23612;50.894;10.700;2023-07-31T02:13:11;14.60;99.90
20528;DHT22;23612;50.894;10.700;2023-07-31T02:15:36;14.50;99.90
20528;DHT22;23612;50.894;10.700;2023-07-31T02:18:02;14.50;99.90
20528;DHT22;23612;50.894;10.700;2023-07-31T02:20:27;14.50;99.90
20528;DHT22;23612;50.894;10.700;2023-07-31T02:22:53;14.40;99.90
20528;DHT22;23612;50.894;10.700;2023-07-31T02:25:18;14.40;99.90
20528;DHT22;23612;50.894;10.700;2023-07-31T02:27:44;14.50;99.90
20528;DHT22;23612;50.894;10.700;2023-07-31T02:30:10;14.50;99.90
20528;DHT22;23612;50.894;10.700;2023-07-31T02:32:35;14.50;99.90
20528;DHT22;23612;50.894;10.700;2023-07-31T02:35:01;14.50;99.90
20528;DHT22;23612;50.894;10.700;2023-07-31T02:37:26;14.50;99.90
20528;DHT22;23612;50.894;10.700;2023-07-31T02:39:54;14.50;99.90
20528;DHT22;23612;50.894;10.700;2023-07-31T02:42:19;14.50;99.90
20528;DHT22;23612;50.894;10.700;2023-07-31T02:44:45;14.60;99.90
20528;DHT22;23612;50.894;10.700;2023-07-31T02:47:10;14.60;99.90
20528;DHT22;23612;50.894;10.700;2023-07-31T02:49:36;14.50;99.90
20528;DHT22;23612;50.894;10.700;2023-07-31T02:52:01;14.50;99.90
20528;DHT22;23612;50.894;10.700;2023-07-31T02:54:27;14.50;99.90
20528;DHT22;23612;50.894;10.700;2023-07-31T02:56:52;14.50;99.90
20528;DHT22;23612;50.894;10.700;2023-07-31T02:59:18;14.50;99.90
20528;DHT22;23612;50.894;10.700;2023-07-31T03:01:44;14.50;99.90
20528;DHT22;23612;50.894;10.700;2023-07-31T03:04:09;14.50;99.90
20528;DHT22;23612;50.894;10.700;2023-07-31T03:06:35;14.50;99.90
20528;DHT22;23612;50.894;10.700;2023-07-31T03:09:00;14.50;99.90
20528;DHT22;23612;50.894;10.700;2023-07-31T03:11:26;14.50;99.90
20528;DHT22;23612;50.894;10.700;2023-07-31T03:13:51;14.40;99.90
20528;DHT22;23612;50.894;10.700;2023-07-31T03:16:17;14.50;99.90
20528;DHT22;23612;50.894;10.700;2023-07-31T03:18:43;14.50;99.90
20528;DHT22;23612;50.894;10.700;2023-07-31T03:21:08;14.50;99.90
20528;DHT22;23612;50.894;10.700;2023-07-31T03:23:34;14.50;99.90
20528;DHT22;23612;50.894;10.700;2023-07-31T03:26:01;14.60;99.90
20528;DHT22;23612;50.894;10.700;2023-07-31T03:28:28;14.60;99.90
20528;DHT22;23612;50.894;10.700;2023-07-31T03:30:54;14.60;99.90
20528;DHT22;23612;50.894;10.700;2023-07-31T03:33:19;14.60;99.90
20528;DHT22;23612;50.894;10.700;2023-07-31T03:35:45;14.50;99.90
20528;DHT22;23612;50.894;10.700;2023-07-31T03:38:11;14.50;99.90
20528;DHT22;23612;50.894;10.700;2023-07-31T03:40:36;14.50;99.90
20528;DHT22;23612;50.894;10.700;2023-07-31T03:43:02;14.60;99.90
20528;DHT22;23612;50.894;10.700;2023-07-31T03:45:27;14.60;99.90
20528;DHT22;23612;50.894;10.700;2023-07-31T03:47:53;14.50;99.90
20528;DHT22;23612;50.894;10.700;2023-07-31T03:50:20;14.60;99.90
20528;DHT22;23612;50.894;10.700;2023-07-31T03:52:46;14.60;99.90
20528;DHT22;23612;50.894;10.700;2023-07-31T03:55:11;14.60;99.90
20528;DHT22;23612;50.894;10.700;2023-07-31T03:57:37;14.60;99.90
20528;DHT22;23612;50.894;10.700;2023-07-31T04:00:03;14.60;99.90
20528;DHT22;23612;50.894;10.700;2023-07-31T04:02:29;14.60;99.90
20528;DHT22;23612;50.894;10.700;2023-07-31T04:04:54;14.60;99.90
20528;DHT22;23612;50.894;10.700;2023-07-31T04:07:20;14.60;99.90
20528;DHT22;23612;50.894;10.700;2023-07-31T04:09:45;14.70;99.90
20528;DHT22;23612;50.894;10.700;2023-07-31T04:12:11;14.70;99.90
20528;DHT22;23612;50.894;10.700;2023-07-31T04:14:37;14.70;99.90
20528;DHT22;23612;50.894;10.700;2023-07-31T04:17:02;14.70;99.90
20528;DHT22;23612;50.894;10.700;2023-07-31T04:19:28;14.80;99.90
20528;DHT22;23612;50.894;10.700;2023-07-31T04:21:53;14.80;99.90
20528;DHT22;23612;50.894;10.700;2023-07-31T04:24:19;14.80;99.90
20528;DHT22;23612;50.894;10.700;2023-07-31T04:26:50;14.80;99.90
20528;DHT22;23612;50.894;10.700;2023-07-31T04:29:15;14.80;99.90
20528;DHT22;23612;50.894;10.700;2023-07-31T04:31:41;14.80;99.90
20528;DHT22;23612;50.894;10.700;2023-07-31T04:34:06;14.90;99.90
20528;DHT22;23612;50.894;10.700;2023-07-31T04:36:33;14.90;99.90
20528;DHT22;23612;50.894;10.700;2023-07-31T04:38:59;14.90;99.90
20528;DHT22;23612;50.894;10.700;2023-07-31T04:41:24;14.90;99.90
20528;DHT22;23612;50.894;10.700;2023-07-31T04:43:50;15.00;99.90
20528;DHT22;23612;50.894;10.700;2023-07-31T04:46:15;15.00;99.90
20528;DHT22;23612;50.894;10.700;2023-07-31T04:48:41;15.00;99.90
20528;DHT22;23612;50.894;10.700;2023-07-31T04:51:06;15.10;99.90
20528;DHT22;23612;50.894;10.700;2023-07-31T04:53:32;15.10;99.90
20528;DHT22;23612;50.894;10.700;2023-07-31T04:55:58;15.10;99.90
20528;DHT22;23612;50.894;10.700;2023-07-31T04:58:23;15.20;99.90
20528;DHT22;23612;50.894;10.700;2023-07-31T05:00:49;15.20;99.90
20528;DHT22;23612;50.894;10.700;2023-07-31T05:03:14;15.30;99.90
20528;DHT22;23612;50.894;10.700;2023-07-31T05:05:40;15.30;99.90
20528;DHT22;23612;50.894;10.700;2023-07-31T05:08:05;15.40;99.90
20528;DHT22;23612;50.894;10.700;2023-07-31T05:10:31;15.40;99.90
20528;DHT22;23612;50.894;10.700;2023-07-31T05:12:56;15.40;99.90
20528;DHT22;23612;50.894;10.700;2023-07-31T05:15:22;15.40;99.90
20528;DHT22;23612;50.894;10.700;2023-07-31T05:17:48;15.40;99.90
20528;DHT22;23612;50.894;10.700;2023-07-31T05:20:13;15.40;99.90
20528;DHT22;23612;50.894;10.700;2023-07-31T05:22:40;15.40;99.90
20528;DHT22;23612;50.894;10.700;2023-07-31T05:25:06;15.40;99.90
20528;DHT22;23612;50.894;10.700;2023-07-31T05:27:32;15.40;99.90
20528;DHT22;23612;50.894;10.700;2023-07-31T05:29:57;15.50;99.90
20528;DHT22;23612;50.894;10.700;2023-07-31T05:32:23;15.50;99.90
20528;DHT22;23612;50.894;10.700;2023-07-31T05:34:51;15.60;99.90
20528;DHT22;23612;50.894;10.700;2023-07-31T05:37:17;15.50;99.90
20528;DHT22;23612;50.894;10.700;2023-07-31T05:39:43;15.60;99.90
20528;DHT22;23612;50.894;10.700;2023-07-31T05:42:08;15.60;99.90
20528;DHT22;23612;50.894;10.700;2023-07-31T05:44:34;15.60;99.90
20528;DHT22;23612;50.894;10.700;2023-07-31T05:47:00;15.60;99.90
20528;DHT22;23612;50.894;10.700;2023-07-31T05:49:25;15.70;99.90
20528;DHT22;23612;50.894;10.700;2023-07-31T05:51:51;15.70;99.90
20528;DHT22;23612;50.894;10.700;2023-07-31T05:54:16;15.80;99.90
20528;DHT22;23612;50.894;10.700;2023-07-31T05:56:42;15.90;99.90
20528;DHT22;23612;50.894;10.700;2023-07-31T05:59:09;15.90;99.90
20528;DHT22;23612;50.894;10.700;2023-07-31T06:01:35;15.90;99.90
20528;DHT22;23612;50.894;10.700;2023-07-31T06:04:00;15.90;99.90
20528;DHT22;23612;50.894;10.700;2023-07-31T06:06:27;15.90;99.90
20528;DHT22;23612;50.894;10.700;2023-07-31T06:08:53;15.90;99.90
20528;DHT22;23612;50.894;10.700;2023-07-31T06:11:20;16.00;99.90
20528;DHT22;23612;50.894;10.700;2023-07-31T06:13:45;15.90;99.90
20528;DHT22;23612;50.894;10.700;2023-07-31T06:16:13;15.90;99.90
20528;DHT22;23612;50.894;10.700;2023-07-31T06:18:38;15.90;99.90
20528;DHT22;23612;50.894;10.700;2023-07-31T06:21:04;15.90;99.90
20528;DHT22;23612;50.894;10.700;2023-07-31T06:23:30;16.00;99.90
20528;DHT22;23612;50.894;10.700;2023-07-31T06:25:55;16.10;99.90
20528;DHT22;23612;50.894;10.700;2023-07-31T06:28:21;16.20;99.90
20528;DHT22;23612;50.894;10.700;2023-07-31T06:30:46;16.20;99.90
20528;DHT22;23612;50.894;10.700;2023-07-31T06:33:12;16.30;99.90
20528;DHT22;23612;50.894;10.700;2023-07-31T06:35:38;16.30;99.90
20528;DHT22;23612;50.894;10.700;2023-07-31T06:38:03;16.30;99.90
20528;DHT22;23612;50.894;10.700;2023-07-31T06:40:29;16.30;99.90
20528;DHT22;23612;50.894;10.700;2023-07-31T06:42:55;16.40;99.90
20528;DHT22;23612;50.894;10.700;2023-07-31T06:45:20;16.30;99.90
20528;DHT22;23612;50.894;10.700;2023-07-31T06:47:47;16.30;99.90
20528;DHT22;23612;50.894;10.700;2023-07-31T06:50:12;16.20;99.90
20528;DHT22;23612;50.894;10.700;2023-07-31T06:52:38;16.20;99.90
20528;DHT22;23612;50.894;10.700;2023-07-31T06:55:16;16.30;99.90
20528;DHT22;23612;50.894;10.700;2023-07-31T06:57:49;16.40;99.90
20528;DHT22;23612;50.894;10.700;2023-07-31T07:00:16;16.40;99.90
20528;DHT22;23612;50.894;10.700;2023-07-31T07:02:42;16.50;99.90
20528;DHT22;23612;50.894;10.700;2023-07-31T07:05:07;16.60;99.90
20528;DHT22;23612;50.894;10.700;2023-07-31T07:07:33;16.70;99.90
20528;DHT22;23612;50.894;10.700;2023-07-31T07:09:59;16.80;99.90
20528;DHT22;23612;50.894;10.700;2023-07-31T07:12:25;16.90;99.90
20528;DHT22;23612;50.894;10.700;2023-07-31T07:14:51;17.00;99.90
20528;DHT22;23612;50.894;10.700;2023-07-31T07:17:18;17.10;99.90
20528;DHT22;23612;50.894;10.700;2023-07-31T07:19:44;17.20;99.90
20528;DHT22;23612;50.894;10.700;2023-07-31T07:22:11;17.30;99.90
20528;DHT22;23612;50.894;10.700;2023-07-31T07:24:37;17.50;99.90
20528;DHT22;23612;50.894;10.700;2023-07-31T07:27:03;17.50;99.90
20528;DHT22;23612;50.894;10.700;2023-07-31T07:29:29;17.50;99.90
20528;DHT22;23612;50.894;10.700;2023-07-31T07:31:54;17.40;99.90
20528;DHT22;23612;50.894;10.700;2023-07-31T07:34:22;17.30;99.90
20528;DHT22;23612;50.894;10.700;2023-07-31T07:36:48;17.50;99.90
20528;DHT22;23612;50.894;10.700;2023-07-31T07:39:14;17.60;99.90
20528;DHT22;23612;50.894;10.700;2023-07-31T07:41:39;17.60;99.90
20528;DHT22;23612;50.894;10.700;2023-07-31T07:44:05;17.70;99.90
20528;DHT22;23612;50.894;10.700;2023-07-31T07:46:30;17.70;99.90
20528;DHT22;23612;50.894;10.700;2023-07-31T07:48:56;17.70;99.90
20528;DHT22;23612;50.894;10.700;2023-07-31T07:51:21;17.60;99.90
20528;DHT22;23612;50.894;10.700;2023-07-31T07:53:47;17.60;99.90
20528;DHT22;23612;50.894;10.700;2023-07-31T07:56:12;17.60;99.90
20528;DHT22;23612;50.894;10.700;2023-07-31T07:58:38;17.80;99.90
20528;DHT22;23612;50.894;10.700;2023-07-31T08:01:03;18.00;99.90
20528;DHT22;23612;50.894;10.700;2023-07-31T08:03:29;18.20;99.90
20528;DHT22;23612;50.894;10.700;2023-07-31T08:05:58;18.50;99.90
20528;DHT22;23612;50.894;10.700;2023-07-31T08:08:24;18.70;99.90
20528;DHT22;23612;50.894;10.700;2023-07-31T08:10:49;18.80;99.90
20528;DHT22;23612;50.894;10.700;2023-07-31T08:13:15;18.70;99.90
20528;DHT22;23612;50.894;10.700;2023-07-31T08:15:43;18.40;99.90
20528;DHT22;23612;50.894;10.700;2023-07-31T08:18:10;18.30;99.90
20528;DHT22;23612;50.894;10.700;2023-07-31T08:20:37;18.10;99.90
20528;DHT22;23612;50.894;10.700;2023-07-31T08:23:02;17.90;99.90
20528;DHT22;23612;50.894;10.700;2023-07-31T08:25:28;17.70;99.90
20528;DHT22;23612;50.894;10.700;2023-07-31T08:27:54;17.60;99.90
20528;DHT22;23612;50.894;10.700;2023-07-31T08:30:19;17.70;99.90
20528;DHT22;23612;50.894;10.700;2023-07-31T08:32:45;17.80;99.90
20528;DHT22;23612;50.894;10.700;2023-07-31T08:35:11;17.90;99.90
20528;DHT22;23612;50.894;10.700;2023-07-31T08:37:38;18.00;99.90
20528;DHT22;23612;50.894;10.700;2023-07-31T08:40:04;18.10;99.90
20528;DHT22;23612;50.894;10.700;2023-07-31T08:42:30;18.00;99.90
20528;DHT22;23612;50.894;10.700;2023-07-31T08:44:56;18.00;99.90
20528;DHT22;23612;50.894;10.700;2023-07-31T08:47:22;18.00;99.90
20528;DHT22;23612;50.894;10.700;2023-07-31T08:49:49;18.40;99.90
20528;DHT22;23612;50.894;10.700;2023-07-31T08:52:15;18.70;99.90
20528;DHT22;23612;50.894;10.700;2023-07-31T08:54:41;18.80;99.90
20528;DHT22;23612;50.894;10.700;2023-07-31T08:57:07;18.90;99.90
20528;DHT22;23612;50.894;10.700;2023-07-31T08:59:34;19.20;99.90
20528;DHT22;23612;50.894;10.700;2023-07-31T09:02:06;19.20;99.90
20528;DHT22;23612;50.894;10.700;2023-07-31T09:04:33;19.40;99.90
20528;DHT22;23612;50.894;10.700;2023-07-31T09:07:01;19.60;99.90
20528;DHT22;23612;50.894;10.700;2023-07-31T09:09:28;20.10;99.90
20528;DHT22;23612;50.894;10.700;2023-07-31T09:11:55;20.40;99.90
20528;DHT22;23612;50.894;10.700;2023-07-31T09:14:21;20.30;99.90
20528;DHT22;23612;50.894;10.700;2023-07-31T09:16:56;20.20;99.90
20528;DHT22;23612;50.894;10.700;2023-07-31T09:19:34;20.00;99.90
20528;DHT22;23612;50.894;10.700;2023-07-31T09:22:02;19.80;99.90
20528;DHT22;23612;50.894;10.700;2023-07-31T09:24:30;19.40;99.90
20528;DHT22;23612;50.894;10.700;2023-07-31T09:26:57;19.10;99.90
20528;DHT22;23612;50.894;10.700;2023-07-31T09:29:25;18.90;99.90
20528;DHT22;23612;50.894;10.700;2023-07-31T09:31:52;18.70;99.90
20528;DHT22;23612;50.894;10.700;2023-07-31T09:34:17;18.50;99.90
20528;DHT22;23612;50.894;10.700;2023-07-31T09:36:45;18.60;99.90
20528;DHT22;23612;50.894;10.700;2023-07-31T09:39:12;18.70;99.90
20528;DHT22;23612;50.894;10.700;2023-07-31T09:41:44;18.90;99.90
20528;DHT22;23612;50.894;10.700;2023-07-31T09:44:10;19.00;99.90
20528;DHT22;23612;50.894;10.700;2023-07-31T09:46:37;19.10;99.90
20528;DHT22;23612;50.894;10.700;2023-07-31T09:49:10;19.20;99.90
20528;DHT22;23612;50.894;10.700;2023-07-31T09:51:40;19.30;99.90
20528;DHT22;23612;50.894;10.700;2023-07-31T09:54:13;19.40;99.90
20528;DHT22;23612;50.894;10.700;2023-07-31T09:56:48;19.50;99.90
20528;DHT22;23612;50.894;10.700;2023-07-31T09:59:18;19.50;99.90
20528;DHT22;23612;50.894;10.700;2023-07-31T10:01:46;19.80;99.90
20528;DHT22;23612;50.894;10.700;2023-07-31T10:04:13;20.40;99.90
20528;DHT22;23612;50.894;10.700;2023-07-31T10:06:40;21.30;99.90
20528;DHT22;23612;50.894;10.700;2023-07-31T10:09:07;21.70;99.90
20528;DHT22;23612;50.894;10.700;2023-07-31T10:11:38;21.60;99.90
20528;DHT22;23612;50.894;10.700;2023-07-31T10:14:07;21.30;99.90
20528;DHT22;23612;50.894;10.700;2023-07-31T10:16:34;20.90;99.90
20528;DHT22;23612;50.894;10.700;2023-07-31T10:19:00;20.80;99.90
20528;DHT22;23612;50.894;10.700;2023-07-31T10:21:27;21.00;99.90
20528;DHT22;23612;50.894;10.700;2023-07-31T10:23:53;21.20;99.90
20528;DHT22;23612;50.894;10.700;2023-07-31T10:26:20;21.30;99.90
20528;DHT22;23612;50.894;10.700;2023-07-31T10:28:47;21.50;99.90
20528;DHT22;23612;50.894;10.700;2023-07-31T10:31:13;21.60;99.90
20528;DHT22;23612;50.894;10.700;2023-07-31T10:33:40;21.10;99.90
20528;DHT22;23612;50.894;10.700;2023-07-31T10:36:17;20.70;99.90
20528;DHT22;23612;50.894;10.700;2023-07-31T10:38:43;20.60;99.90
20528;DHT22;23612;50.894;10.700;2023-07-31T10:41:09;20.30;99.90
20528;DHT22;23612;50.894;10.700;2023-07-31T10:43:36;20.20;99.90
20528;DHT22;23612;50.894;10.700;2023-07-31T10:46:07;20.10;99.90
20528;DHT22;23612;50.894;10.700;2023-07-31T10:48:34;19.90;99.90
20528;DHT22;23612;50.894;10.700;2023-07-31T10:51:00;19.60;99.90
20528;DHT22;23612;50.894;10.700;2023-07-31T10:53:32;19.50;99.90
20528;DHT22;23612;50.894;10.700;2023-07-31T10:56:03;19.40;99.90
20528;DHT22;23612;50.894;10.700;2023-07-31T10:58:30;19.20;99.90
20528;DHT22;23612;50.894;10.700;2023-07-31T11:00:58;19.10;99.90
20528;DHT22;23612;50.894;10.700;2023-07-31T11:03:41;19.10;99.90
20528;DHT22;23612;50.894;10.700;2023-07-31T11:06:08;19.00;99.90
20528;DHT22;23612;50.894;10.700;2023-07-31T11:08:35;19.10;99.90
20528;DHT22;23612;50.894;10.700;2023-07-31T11:13:30;19.50;99.90
20528;DHT22;23612;50.894;10.700;2023-07-31T11:15:56;19.70;99.90
20528;DHT22;23612;50.894;10.700;2023-07-31T11:18:22;19.60;99.90
20528;DHT22;23612;50.894;10.700;2023-07-31T11:20:47;19.50;99.90
20528;DHT22;23612;50.894;10.700;2023-07-31T11:23:17;19.50;99.90
20528;DHT22;23612;50.894;10.700;2023-07-31T11:25:43;19.30;99.90
20528;DHT22;23612;50.894;10.700;2023-07-31T11:28:10;19.30;99.90
20528;DHT22;23612;50.894;10.700;2023-07-31T11:30:36;19.50;99.90
20528;DHT22;23612;50.894;10.700;2023-07-31T11:33:04;19.90;99.90
20528;DHT22;23612;50.894;10.700;2023-07-31T11:35:41;20.10;99.90
20528;DHT22;23612;50.894;10.700;2023-07-31T11:38:07;20.30;99.90
20528;DHT22;23612;50.894;10.700;2023-07-31T11:40:44;20.30;99.90
20528;DHT22;23612;50.894;10.700;2023-07-31T11:43:10;20.20;99.90
20528;DHT22;23612;50.894;10.700;2023-07-31T11:45:41;20.10;99.90
20528;DHT22;23612;50.894;10.700;2023-07-31T11:48:07;20.10;99.90
20528;DHT22;23612;50.894;10.700;2023-07-31T11:50:34;20.20;99.90
20528;DHT22;23612;50.894;10.700;2023-07-31T11:53:05;20.60;99.90
20528;DHT22;23612;50.894;10.700;2023-07-31T11:55:33;21.10;99.90
20528;DHT22;23612;50.894;10.700;2023-07-31T11:57:59;22.20;99.90
20528;DHT22;23612;50.894;10.700;2023-07-31T12:00:26;22.90;99.90
20528;DHT22;23612;50.894;10.700;2023-07-31T12:02:53;23.60;99.90
20528;DHT22;23612;50.894;10.700;2023-07-31T12:05:18;24.80;99.90
20528;DHT22;23612;50.894;10.700;2023-07-31T12:07:51;24.90;99.90
20528;DHT22;23612;50.894;10.700;2023-07-31T12:13:06;23.80;99.90
20528;DHT22;23612;50.894;10.700;2023-07-31T12:15:43;22.80;99.90
20528;DHT22;23612;50.894;10.700;2023-07-31T12:18:13;22.50;99.90
20528;DHT22;23612;50.894;10.700;2023-07-31T12:20:44;22.30;99.90
20528;DHT22;23612;50.894;10.700;2023-07-31T12:23:21;22.20;99.90
20528;DHT22;23612;50.894;10.700;2023-07-31T12:28:45;22.90;99.90
20528;DHT22;23612;50.894;10.700;2023-07-31T12:31:18;22.60;99.90
20528;DHT22;23612;50.894;10.700;2023-07-31T12:33:45;21.90;99.90
20528;DHT22;23612;50.894;10.700;2023-07-31T12:36:12;21.40;99.90
20528;DHT22;23612;50.894;10.700;2023-07-31T12:38:38;21.00;99.90
20528;DHT22;23612;50.894;10.700;2023-07-31T12:41:04;20.90;99.90
20528;DHT22;23612;50.894;10.700;2023-07-31T12:43:30;20.80;99.90
20528;DHT22;23612;50.894;10.700;2023-07-31T12:45:56;20.80;99.90
20528;DHT22;23612;50.894;10.700;2023-07-31T12:48:22;20.90;99.90
20528;DHT22;23612;50.894;10.700;2023-07-31T12:50:48;20.70;99.90
20528;DHT22;23612;50.894;10.700;2023-07-31T12:53:14;20.40;99.90
20528;DHT22;23612;50.894;10.700;2023-07-31T12:55:40;20.20;99.90
20528;DHT22;23612;50.894;10.700;2023-07-31T12:58:05;20.30;99.90
20528;DHT22;23612;50.894;10.700;2023-07-31T13:00:31;20.60;99.90
20528;DHT22;23612;50.894;10.700;2023-07-31T13:02:56;20.70;99.90
20528;DHT22;23612;50.894;10.700;2023-07-31T13:05:22;20.70;99.90
20528;DHT22;23612;50.894;10.700;2023-07-31T13:07:48;20.70;99.90
20528;DHT22;23612;50.894;10.700;2023-07-31T13:10:13;20.40;99.90
20528;DHT22;23612;50.894;10.700;2023-07-31T13:12:39;20.00;99.90
20528;DHT22;23612;50.894;10.700;2023-07-31T13:15:05;20.00;99.90
20528;DHT22;23612;50.894;10.700;2023-07-31T13:17:31;20.20;99.90
20528;DHT22;23612;50.894;10.700;2023-07-31T13:19:57;20.20;99.90
20528;DHT22;23612;50.894;10.700;2023-07-31T13:22:22;20.40;99.90
20528;DHT22;23612;50.894;10.700;2023-07-31T13:24:48;20.60;99.90
20528;DHT22;23612;50.894;10.700;2023-07-31T13:27:14;20.70;99.90
20528;DHT22;23612;50.894;10.700;2023-07-31T13:29:44;21.10;99.90
20528;DHT22;23612;50.894;10.700;2023-07-31T13:32:09;21.00;99.90
20528;DHT22;23612;50.894;10.700;2023-07-31T13:34:35;20.90;99.90
20528;DHT22;23612;50.894;10.700;2023-07-31T13:37:00;20.70;99.90
20528;DHT22;23612;50.894;10.700;2023-07-31T13:39:26;20.80;99.90
20528;DHT22;23612;50.894;10.700;2023-07-31T13:41:51;20.90;99.90
20528;DHT22;23612;50.894;10.700;2023-07-31T13:44:17;20.90;99.90
20528;DHT22;23612;50.894;10.700;2023-07-31T13:46:42;21.10;99.90
20528;DHT22;23612;50.894;10.700;2023-07-31T13:49:08;21.00;99.90
20528;DHT22;23612;50.894;10.700;2023-07-31T13:51:33;21.10;99.90
20528;DHT22;23612;50.894;10.700;2023-07-31T13:53:59;21.00;99.90
20528;DHT22;23612;50.894;10.700;2023-07-31T13:56:25;20.70;99.90
20528;DHT22;23612;50.894;10.700;2023-07-31T13:58:50;20.80;99.90
20528;DHT22;23612;50.894;10.700;2023-07-31T14:01:16;20.70;99.90
20528;DHT22;23612;50.894;10.700;2023-07-31T14:03:41;21.00;99.90
20528;DHT22;23612;50.894;10.700;2023-07-31T14:06:07;21.10;99.90
20528;DHT22;23612;50.894;10.700;2023-07-31T14:08:32;21.10;99.90
20528;DHT22;23612;50.894;10.700;2023-07-31T14:10:58;21.10;99.90
20528;DHT22;23612;50.894;10.700;2023-07-31T14:13:23;21.00;99.90
20528;DHT22;23612;50.894;10.700;2023-07-31T14:15:49;21.00;99.90
20528;DHT22;23612;50.894;10.700;2023-07-31T14:18:14;21.00;99.90
20528;DHT22;23612;50.894;10.700;2023-07-31T14:20:40;21.20;99.90
20528;DHT22;23612;50.894;10.700;2023-07-31T14:23:05;21.30;99.90
20528;DHT22;23612;50.894;10.700;2023-07-31T14:25:31;21.40;99.90
20528;DHT22;23612;50.894;10.700;2023-07-31T14:27:56;21.60;99.90
20528;DHT22;23612;50.894;10.700;2023-07-31T14:30:22;21.50;99.90
20528;DHT22;23612;50.894;10.700;2023-07-31T14:32:48;21.60;99.90
20528;DHT22;23612;50.894;10.700;2023-07-31T14:35:14;21.60;99.90
20528;DHT22;23612;50.894;10.700;2023-07-31T14:37:44;21.20;99.90
20528;DHT22;23612;50.894;10.700;2023-07-31T14:40:11;21.20;99.90
20528;DHT22;23612;50.894;10.700;2023-07-31T14:42:38;21.10;99.90
20528;DHT22;23612;50.894;10.700;2023-07-31T14:45:05;20.90;99.90
20528;DHT22;23612;50.894;10.700;2023-07-31T14:47:30;20.60;99.90
20528;DHT22;23612;50.894;10.700;2023-07-31T14:49:57;20.50;99.90
20528;DHT22;23612;50.894;10.700;2023-07-31T14:52:23;20.60;99.90
20528;DHT22;23612;50.894;10.700;2023-07-31T14:54:48;20.60;99.90
20528;DHT22;23612;50.894;10.700;2023-07-31T14:57:14;20.60;99.90
20528;DHT22;23612;50.894;10.700;2023-07-31T14:59:39;20.80;99.90
20528;DHT22;23612;50.894;10.700;2023-07-31T15:02:05;20.80;99.90
20528;DHT22;23612;50.894;10.700;2023-07-31T15:04:31;20.70;99.90
20528;DHT22;23612;50.894;10.700;2023-07-31T15:06:57;20.70;99.90
20528;DHT22;23612;50.894;10.700;2023-07-31T15:09:22;20.60;99.90
20528;DHT22;23612;50.894;10.700;2023-07-31T15:11:48;20.60;99.90
20528;DHT22;23612;50.894;10.700;2023-07-31T15:14:13;20.60;99.90
20528;DHT22;23612;50.894;10.700;2023-07-31T15:16:38;20.50;99.90
20528;DHT22;23612;50.894;10.700;2023-07-31T15:19:04;20.40;99.90
20528;DHT22;23612;50.894;10.700;2023-07-31T15:21:30;20.30;99.90
20528;DHT22;23612;50.894;10.700;2023-07-31T15:23:55;20.20;99.90
20528;DHT22;23612;50.894;10.700;2023-07-31T15:26:21;20.20;99.90
20528;DHT22;23612;50.894;10.700;2023-07-31T15:28:49;20.10;99.90